sensor_id;sensor_type;location;lat;lon;timestamp;P1;durP1;ratioP1;P2;durP2;ratioP2
46721;SDS011;32455;43.430;23.136;2023-07-09T00:00:33;3.25;;;2.15;;
46721;SDS011;32455;43.430;23.136;2023-07-09T00:03:18;2.60;;;1.95;;
46721;SDS011;32455;43.430;23.136;2023-07-09T00:06:04;6.78;;;2.10;;
46721;SDS011;32455;43.430;23.136;2023-07-09T00:08:52;4.40;;;2.00;;
46721;SDS011;32455;43.430;23.136;2023-07-09T00:11:38;8.23;;;2.17;;
46721;SDS011;32455;43.430;23.136;2023-07-09T00:14:22;5.50;;;2.10;;
46721;SDS011;32455;43.430;23.136;2023-07-09T00:17:11;3.75;;;2.20;;
46721;SDS011;32455;43.430;23.136;2023-07-09T00:20:03;4.20;;;2.45;;
46721;SDS011;32455;43.430;23.136;2023-07-09T00:22:49;6.05;;;2.17;;
46721;SDS011;32455;43.430;23.136;2023-07-09T00:25:37;2.70;;;1.85;;
46721;SDS011;32455;43.430;23.136;2023-07-09T00:28:22;2.70;;;2.10;;
46721;SDS011;32455;43.430;23.136;2023-07-09T00:31:15;2.75;;;2.45;;
46721;SDS011;32455;43.430;23.136;2023-07-09T00:34:01;3.00;;;2.28;;
46721;SDS011;32455;43.430;23.136;2023-07-09T00:36:47;3.17;;;2.35;;
46721;SDS011;32455;43.430;23.136;2023-07-09T00:39:33;5.47;;;2.85;;
46721;SDS011;32455;43.430;23.136;2023-07-09T00:42:20;5.28;;;2.03;;
46721;SDS011;32455;43.430;23.136;2023-07-09T00:45:14;2.33;;;1.80;;
46721;SDS011;32455;43.430;23.136;2023-07-09T00:50:59;4.78;;;1.80;;
46721;SDS011;32455;43.430;23.136;2023-07-09T00:53:45;3.45;;;2.03;;
46721;SDS011;32455;43.430;23.136;2023-07-09T00:56:33;3.90;;;2.33;;
46721;SDS011;32455;43.430;23.136;2023-07-09T00:59:25;4.15;;;1.92;;
46721;SDS011;32455;43.430;23.136;2023-07-09T01:02:16;6.13;;;2.42;;
46721;SDS011;32455;43.430;23.136;2023-07-09T01:05:07;3.28;;;2.25;;
46721;SDS011;32455;43.430;23.136;2023-07-09T01:07:53;4.25;;;1.80;;
46721;SDS011;32455;43.430;23.136;2023-07-09T01:10:38;3.90;;;2.30;;
46721;SDS011;32455;43.430;23.136;2023-07-09T01:13:25;3.85;;;2.35;;
46721;SDS011;32455;43.430;23.136;2023-07-09T01:16:12;4.40;;;2.08;;
46721;SDS011;32455;43.430;23.136;2023-07-09T01:18:58;6.07;;;2.45;;
46721;SDS011;32455;43.430;23.136;2023-07-09T01:21:43;2.97;;;2.20;;
46721;SDS011;32455;43.430;23.136;2023-07-09T01:27:39;3.50;;;2.10;;
46721;SDS011;32455;43.430;23.136;2023-07-09T01:30:36;2.95;;;2.30;;
46721;SDS011;32455;43.430;23.136;2023-07-09T01:33:23;7.68;;;2.10;;
46721;SDS011;32455;43.430;23.136;2023-07-09T01:36:09;5.13;;;2.10;;
46721;SDS011;32455;43.430;23.136;2023-07-09T01:38:58;2.92;;;2.10;;
46721;SDS011;32455;43.430;23.136;2023-07-09T01:41:45;4.35;;;2.50;;
46721;SDS011;32455;43.430;23.136;2023-07-09T01:44:31;4.93;;;2.70;;
46721;SDS011;32455;43.430;23.136;2023-07-09T01:47:17;3.90;;;2.25;;
46721;SDS011;32455;43.430;23.136;2023-07-09T01:50:03;3.28;;;2.28;;
46721;SDS011;32455;43.430;23.136;2023-07-09T01:52:49;2.85;;;2.30;;
46721;SDS011;32455;43.430;23.136;2023-07-09T01:55:34;4.93;;;2.28;;
46721;SDS011;32455;43.430;23.136;2023-07-09T01:58:20;5.82;;;2.50;;
46721;SDS011;32455;43.430;23.136;2023-07-09T02:01:09;3.85;;;2.20;;
46721;SDS011;32455;43.430;23.136;2023-07-09T02:03:54;3.50;;;2.30;;
46721;SDS011;32455;43.430;23.136;2023-07-09T02:06:40;7.22;;;2.50;;
46721;SDS011;32455;43.430;23.136;2023-07-09T02:09:25;5.35;;;2.45;;
46721;SDS011;32455;43.430;23.136;2023-07-09T02:12:11;4.22;;;2.55;;
46721;SDS011;32455;43.430;23.136;2023-07-09T02:14:58;5.90;;;2.75;;
46721;SDS011;32455;43.430;23.136;2023-07-09T02:17:43;3.40;;;2.20;;
46721;SDS011;32455;43.430;23.136;2023-07-09T02:20:29;4.28;;;2.90;;
46721;SDS011;32455;43.430;23.136;2023-07-09T02:23:14;4.75;;;2.28;;
46721;SDS011;32455;43.430;23.136;2023-07-09T02:26:00;3.40;;;2.60;;
46721;SDS011;32455;43.430;23.136;2023-07-09T02:28:45;6.75;;;2.50;;
46721;SDS011;32455;43.430;23.136;2023-07-09T02:31:31;2.67;;;2.33;;
46721;SDS011;32455;43.430;23.136;2023-07-09T02:34:18;2.42;;;2.20;;
46721;SDS011;32455;43.430;23.136;2023-07-09T02:37:04;3.85;;;2.65;;
46721;SDS011;32455;43.430;23.136;2023-07-09T02:39:49;3.92;;;2.78;;
46721;SDS011;32455;43.430;23.136;2023-07-09T02:42:34;4.43;;;2.33;;
46721;SDS011;32455;43.430;23.136;2023-07-09T02:45:20;3.17;;;2.25;;
46721;SDS011;32455;43.430;23.136;2023-07-09T02:48:06;3.05;;;2.50;;
46721;SDS011;32455;43.430;23.136;2023-07-09T02:50:50;5.80;;;2.72;;
46721;SDS011;32455;43.430;23.136;2023-07-09T02:53:35;3.40;;;2.60;;
46721;SDS011;32455;43.430;23.136;2023-07-09T02:56:21;4.25;;;2.47;;
46721;SDS011;32455;43.430;23.136;2023-07-09T02:59:06;3.63;;;2.70;;
46721;SDS011;32455;43.430;23.136;2023-07-09T03:01:52;4.05;;;2.55;;
46721;SDS011;32455;43.430;23.136;2023-07-09T03:04:37;6.90;;;2.22;;
46721;SDS011;32455;43.430;23.136;2023-07-09T03:07:23;5.72;;;2.10;;
46721;SDS011;32455;43.430;23.136;2023-07-09T03:10:08;5.20;;;2.35;;
46721;SDS011;32455;43.430;23.136;2023-07-09T03:12:54;3.90;;;2.85;;
46721;SDS011;32455;43.430;23.136;2023-07-09T03:15:40;7.07;;;2.60;;
46721;SDS011;32455;43.430;23.136;2023-07-09T03:18:26;4.90;;;2.33;;
46721;SDS011;32455;43.430;23.136;2023-07-09T03:21:11;5.45;;;2.40;;
46721;SDS011;32455;43.430;23.136;2023-07-09T03:23:57;2.60;;;2.13;;
46721;SDS011;32455;43.430;23.136;2023-07-09T03:26:42;4.10;;;2.47;;
46721;SDS011;32455;43.430;23.136;2023-07-09T03:29:27;3.28;;;2.10;;
46721;SDS011;32455;43.430;23.136;2023-07-09T03:32:12;5.47;;;1.90;;
46721;SDS011;32455;43.430;23.136;2023-07-09T03:34:58;2.88;;;2.53;;
46721;SDS011;32455;43.430;23.136;2023-07-09T03:37:43;3.85;;;2.45;;
46721;SDS011;32455;43.430;23.136;2023-07-09T03:40:28;6.88;;;1.98;;
46721;SDS011;32455;43.430;23.136;2023-07-09T03:43:14;4.88;;;2.17;;
46721;SDS011;32455;43.430;23.136;2023-07-09T03:45:59;3.90;;;2.50;;
46721;SDS011;32455;43.430;23.136;2023-07-09T03:48:44;5.43;;;2.38;;
46721;SDS011;32455;43.430;23.136;2023-07-09T03:51:30;3.22;;;2.25;;
46721;SDS011;32455;43.430;23.136;2023-07-09T03:54:15;3.10;;;2.35;;
46721;SDS011;32455;43.430;23.136;2023-07-09T03:57:01;2.83;;;2.30;;
46721;SDS011;32455;43.430;23.136;2023-07-09T03:59:46;4.65;;;2.22;;
46721;SDS011;32455;43.430;23.136;2023-07-09T04:02:31;3.38;;;2.40;;
46721;SDS011;32455;43.430;23.136;2023-07-09T04:05:17;3.28;;;2.50;;
46721;SDS011;32455;43.430;23.136;2023-07-09T04:08:03;4.85;;;2.60;;
46721;SDS011;32455;43.430;23.136;2023-07-09T04:10:49;3.10;;;2.33;;
46721;SDS011;32455;43.430;23.136;2023-07-09T04:13:36;6.25;;;2.50;;
46721;SDS011;32455;43.430;23.136;2023-07-09T04:16:23;4.47;;;2.35;;
46721;SDS011;32455;43.430;23.136;2023-07-09T04:19:08;3.53;;;2.55;;
46721;SDS011;32455;43.430;23.136;2023-07-09T04:21:53;2.53;;;2.13;;
46721;SDS011;32455;43.430;23.136;2023-07-09T04:24:38;4.78;;;2.47;;
46721;SDS011;32455;43.430;23.136;2023-07-09T04:27:24;4.93;;;2.42;;
46721;SDS011;32455;43.430;23.136;2023-07-09T04:30:12;3.40;;;2.20;;
46721;SDS011;32455;43.430;23.136;2023-07-09T04:32:59;6.95;;;2.40;;
46721;SDS011;32455;43.430;23.136;2023-07-09T04:35:45;2.33;;;2.13;;
46721;SDS011;32455;43.430;23.136;2023-07-09T04:38:30;4.10;;;2.83;;
46721;SDS011;32455;43.430;23.136;2023-07-09T04:41:16;5.18;;;2.47;;
46721;SDS011;32455;43.430;23.136;2023-07-09T04:44:01;3.95;;;1.90;;
46721;SDS011;32455;43.430;23.136;2023-07-09T04:46:46;5.82;;;2.33;;
46721;SDS011;32455;43.430;23.136;2023-07-09T04:49:34;2.78;;;1.92;;
46721;SDS011;32455;43.430;23.136;2023-07-09T04:52:19;3.60;;;2.20;;
46721;SDS011;32455;43.430;23.136;2023-07-09T04:55:08;4.47;;;2.40;;
46721;SDS011;32455;43.430;23.136;2023-07-09T04:57:53;5.85;;;2.33;;
46721;SDS011;32455;43.430;23.136;2023-07-09T05:00:38;5.47;;;2.25;;
46721;SDS011;32455;43.430;23.136;2023-07-09T05:03:24;4.70;;;2.10;;
46721;SDS011;32455;43.430;23.136;2023-07-09T05:06:09;3.30;;;1.98;;
46721;SDS011;32455;43.430;23.136;2023-07-09T05:08:55;3.42;;;2.05;;
46721;SDS011;32455;43.430;23.136;2023-07-09T05:11:40;3.17;;;2.00;;
46721;SDS011;32455;43.430;23.136;2023-07-09T05:14:26;6.15;;;2.30;;
46721;SDS011;32455;43.430;23.136;2023-07-09T05:17:12;3.22;;;2.10;;
46721;SDS011;32455;43.430;23.136;2023-07-09T05:19:57;3.20;;;1.83;;
46721;SDS011;32455;43.430;23.136;2023-07-09T05:22:43;3.55;;;2.28;;
46721;SDS011;32455;43.430;23.136;2023-07-09T05:25:28;2.53;;;1.80;;
46721;SDS011;32455;43.430;23.136;2023-07-09T05:28:14;3.03;;;1.98;;
46721;SDS011;32455;43.430;23.136;2023-07-09T05:30:59;2.17;;;1.98;;
46721;SDS011;32455;43.430;23.136;2023-07-09T05:33:44;2.67;;;1.90;;
46721;SDS011;32455;43.430;23.136;2023-07-09T05:36:30;4.07;;;2.20;;
46721;SDS011;32455;43.430;23.136;2023-07-09T05:39:15;3.38;;;2.35;;
46721;SDS011;32455;43.430;23.136;2023-07-09T05:42:01;4.75;;;2.30;;
46721;SDS011;32455;43.430;23.136;2023-07-09T05:44:46;3.83;;;2.05;;
46721;SDS011;32455;43.430;23.136;2023-07-09T05:47:32;7.60;;;2.10;;
46721;SDS011;32455;43.430;23.136;2023-07-09T05:50:17;5.95;;;2.08;;
46721;SDS011;32455;43.430;23.136;2023-07-09T05:53:03;3.70;;;2.30;;
46721;SDS011;32455;43.430;23.136;2023-07-09T05:55:48;2.53;;;1.88;;
46721;SDS011;32455;43.430;23.136;2023-07-09T05:58:38;2.85;;;2.10;;
46721;SDS011;32455;43.430;23.136;2023-07-09T06:01:23;3.35;;;1.77;;
46721;SDS011;32455;43.430;23.136;2023-07-09T06:04:10;4.53;;;2.33;;
46721;SDS011;32455;43.430;23.136;2023-07-09T06:06:58;5.90;;;2.00;;
46721;SDS011;32455;43.430;23.136;2023-07-09T06:09:43;4.82;;;2.42;;
46721;SDS011;32455;43.430;23.136;2023-07-09T06:12:28;4.13;;;1.90;;
46721;SDS011;32455;43.430;23.136;2023-07-09T06:15:12;4.70;;;2.00;;
46721;SDS011;32455;43.430;23.136;2023-07-09T06:17:58;4.70;;;2.28;;
46721;SDS011;32455;43.430;23.136;2023-07-09T06:20:48;2.47;;;2.00;;
46721;SDS011;32455;43.430;23.136;2023-07-09T06:23:33;5.28;;;2.10;;
46721;SDS011;32455;43.430;23.136;2023-07-09T06:26:19;4.50;;;2.20;;
46721;SDS011;32455;43.430;23.136;2023-07-09T06:29:04;3.28;;;1.98;;
46721;SDS011;32455;43.430;23.136;2023-07-09T06:31:50;5.18;;;2.20;;
46721;SDS011;32455;43.430;23.136;2023-07-09T06:34:36;3.95;;;1.83;;
46721;SDS011;32455;43.430;23.136;2023-07-09T06:37:21;2.95;;;1.73;;
46721;SDS011;32455;43.430;23.136;2023-07-09T06:40:06;2.70;;;2.00;;
46721;SDS011;32455;43.430;23.136;2023-07-09T06:42:54;2.28;;;1.88;;
46721;SDS011;32455;43.430;23.136;2023-07-09T06:45:47;3.13;;;1.98;;
46721;SDS011;32455;43.430;23.136;2023-07-09T06:48:34;4.60;;;1.77;;
46721;SDS011;32455;43.430;23.136;2023-07-09T06:51:19;2.47;;;1.80;;
46721;SDS011;32455;43.430;23.136;2023-07-09T06:54:04;4.55;;;2.15;;
46721;SDS011;32455;43.430;23.136;2023-07-09T06:56:51;2.90;;;1.90;;
46721;SDS011;32455;43.430;23.136;2023-07-09T06:59:36;3.63;;;2.00;;
46721;SDS011;32455;43.430;23.136;2023-07-09T07:02:22;2.53;;;1.83;;
46721;SDS011;32455;43.430;23.136;2023-07-09T07:05:08;5.95;;;1.92;;
46721;SDS011;32455;43.430;23.136;2023-07-09T07:07:53;6.20;;;1.85;;
46721;SDS011;32455;43.430;23.136;2023-07-09T07:10:39;3.95;;;1.70;;
46721;SDS011;32455;43.430;23.136;2023-07-09T07:13:25;2.92;;;1.90;;
46721;SDS011;32455;43.430;23.136;2023-07-09T07:16:11;2.35;;;1.80;;
46721;SDS011;32455;43.430;23.136;2023-07-09T07:18:57;3.53;;;1.63;;
46721;SDS011;32455;43.430;23.136;2023-07-09T07:21:47;2.33;;;1.92;;
46721;SDS011;32455;43.430;23.136;2023-07-09T07:24:32;4.93;;;2.10;;
46721;SDS011;32455;43.430;23.136;2023-07-09T07:27:17;3.28;;;1.73;;
46721;SDS011;32455;43.430;23.136;2023-07-09T07:30:03;3.53;;;1.77;;
46721;SDS011;32455;43.430;23.136;2023-07-09T07:32:49;4.80;;;2.15;;
46721;SDS011;32455;43.430;23.136;2023-07-09T07:35:34;2.25;;;1.95;;
46721;SDS011;32455;43.430;23.136;2023-07-09T07:38:21;3.15;;;1.90;;
46721;SDS011;32455;43.430;23.136;2023-07-09T07:41:06;4.07;;;2.20;;
46721;SDS011;32455;43.430;23.136;2023-07-09T07:43:51;3.08;;;2.25;;
46721;SDS011;32455;43.430;23.136;2023-07-09T07:46:37;2.65;;;1.85;;
46721;SDS011;32455;43.430;23.136;2023-07-09T07:49:23;3.30;;;1.63;;
46721;SDS011;32455;43.430;23.136;2023-07-09T07:52:08;2.28;;;1.92;;
46721;SDS011;32455;43.430;23.136;2023-07-09T07:54:54;4.85;;;2.00;;
46721;SDS011;32455;43.430;23.136;2023-07-09T07:57:40;3.58;;;2.30;;
46721;SDS011;32455;43.430;23.136;2023-07-09T08:00:25;3.35;;;2.47;;
46721;SDS011;32455;43.430;23.136;2023-07-09T08:03:10;3.58;;;2.08;;
46721;SDS011;32455;43.430;23.136;2023-07-09T08:05:56;2.83;;;1.65;;
46721;SDS011;32455;43.430;23.136;2023-07-09T08:08:41;2.65;;;2.40;;
46721;SDS011;32455;43.430;23.136;2023-07-09T08:11:26;3.30;;;2.13;;
46721;SDS011;32455;43.430;23.136;2023-07-09T08:14:12;3.35;;;2.03;;
46721;SDS011;32455;43.430;23.136;2023-07-09T08:16:58;8.77;;;2.40;;
46721;SDS011;32455;43.430;23.136;2023-07-09T08:19:46;2.90;;;1.95;;
46721;SDS011;32455;43.430;23.136;2023-07-09T08:22:34;2.42;;;2.00;;
46721;SDS011;32455;43.430;23.136;2023-07-09T08:25:19;5.47;;;2.08;;
46721;SDS011;32455;43.430;23.136;2023-07-09T08:28:04;3.90;;;2.40;;
46721;SDS011;32455;43.430;23.136;2023-07-09T08:30:52;3.33;;;2.25;;
46721;SDS011;32455;43.430;23.136;2023-07-09T08:33:38;3.25;;;2.13;;
46721;SDS011;32455;43.430;23.136;2023-07-09T08:36:25;3.65;;;2.30;;
46721;SDS011;32455;43.430;23.136;2023-07-09T08:39:10;4.45;;;2.13;;
46721;SDS011;32455;43.430;23.136;2023-07-09T08:42:03;3.75;;;1.98;;
46721;SDS011;32455;43.430;23.136;2023-07-09T08:48:15;3.60;;;1.95;;
46721;SDS011;32455;43.430;23.136;2023-07-09T08:51:12;2.80;;;2.25;;
46721;SDS011;32455;43.430;23.136;2023-07-09T08:54:01;8.73;;;2.20;;
46721;SDS011;32455;43.430;23.136;2023-07-09T08:56:46;4.32;;;2.33;;
46721;SDS011;32455;43.430;23.136;2023-07-09T08:59:31;2.58;;;2.00;;
46721;SDS011;32455;43.430;23.136;2023-07-09T09:02:30;2.08;;;1.75;;
46721;SDS011;32455;43.430;23.136;2023-07-09T09:05:24;4.93;;;1.85;;
46721;SDS011;32455;43.430;23.136;2023-07-09T09:08:15;4.70;;;2.13;;
46721;SDS011;32455;43.430;23.136;2023-07-09T09:11:25;3.92;;;1.88;;
46721;SDS011;32455;43.430;23.136;2023-07-09T09:17:20;4.60;;;2.30;;
46721;SDS011;32455;43.430;23.136;2023-07-09T09:20:06;3.97;;;2.55;;
46721;SDS011;32455;43.430;23.136;2023-07-09T09:25:56;7.28;;;3.83;;
46721;SDS011;32455;43.430;23.136;2023-07-09T09:28:44;6.07;;;2.88;;
46721;SDS011;32455;43.430;23.136;2023-07-09T09:31:30;2.55;;;2.25;;
46721;SDS011;32455;43.430;23.136;2023-07-09T09:34:24;5.28;;;2.30;;
46721;SDS011;32455;43.430;23.136;2023-07-09T09:37:12;4.20;;;2.40;;
46721;SDS011;32455;43.430;23.136;2023-07-09T09:40:00;2.85;;;2.15;;
46721;SDS011;32455;43.430;23.136;2023-07-09T09:42:46;5.28;;;2.10;;
46721;SDS011;32455;43.430;23.136;2023-07-09T09:45:36;3.97;;;2.10;;
46721;SDS011;32455;43.430;23.136;2023-07-09T09:48:30;4.60;;;2.22;;
46721;SDS011;32455;43.430;23.136;2023-07-09T09:51:17;3.25;;;1.98;;
46721;SDS011;32455;43.430;23.136;2023-07-09T09:54:03;2.90;;;2.30;;
46721;SDS011;32455;43.430;23.136;2023-07-09T09:57:02;8.43;;;2.85;;
46721;SDS011;32455;43.430;23.136;2023-07-09T09:59:48;5.38;;;2.15;;
46721;SDS011;32455;43.430;23.136;2023-07-09T10:02:38;3.45;;;2.00;;
46721;SDS011;32455;43.430;23.136;2023-07-09T10:05:34;4.30;;;2.70;;
46721;SDS011;32455;43.430;23.136;2023-07-09T10:26:35;4.10;;;2.15;;
46721;SDS011;32455;43.430;23.136;2023-07-09T10:29:48;4.40;;;2.15;;
46721;SDS011;32455;43.430;23.136;2023-07-09T10:41:36;5.07;;;2.20;;
46721;SDS011;32455;43.430;23.136;2023-07-09T10:44:28;4.30;;;2.47;;
46721;SDS011;32455;43.430;23.136;2023-07-09T10:47:57;4.22;;;2.10;;
46721;SDS011;32455;43.430;23.136;2023-07-09T10:50:36;7.43;;;1.83;;
46721;SDS011;32455;43.430;23.136;2023-07-09T10:57:04;3.92;;;1.90;;
46721;SDS011;32455;43.430;23.136;2023-07-09T10:59:59;3.47;;;2.10;;
46721;SDS011;32455;43.430;23.136;2023-07-09T11:02:47;2.88;;;2.05;;
46721;SDS011;32455;43.430;23.136;2023-07-09T11:05:39;3.80;;;2.05;;
46721;SDS011;32455;43.430;23.136;2023-07-09T11:08:30;2.67;;;2.10;;
46721;SDS011;32455;43.430;23.136;2023-07-09T11:11:24;2.03;;;1.73;;
46721;SDS011;32455;43.430;23.136;2023-07-09T11:14:27;4.68;;;2.22;;
46721;SDS011;32455;43.430;23.136;2023-07-09T11:17:20;13.50;;;3.08;;
46721;SDS011;32455;43.430;23.136;2023-07-09T11:20:14;2.85;;;2.20;;
46721;SDS011;32455;43.430;23.136;2023-07-09T11:23:22;12.88;;;2.60;;
46721;SDS011;32455;43.430;23.136;2023-07-09T11:29:15;4.28;;;2.30;;
46721;SDS011;32455;43.430;23.136;2023-07-09T11:32:08;2.78;;;2.33;;
46721;SDS011;32455;43.430;23.136;2023-07-09T11:37:51;5.30;;;2.05;;
46721;SDS011;32455;43.430;23.136;2023-07-09T11:40:45;2.88;;;2.15;;
46721;SDS011;32455;43.430;23.136;2023-07-09T11:43:46;3.45;;;2.35;;
46721;SDS011;32455;43.430;23.136;2023-07-09T11:46:34;5.22;;;2.35;;
46721;SDS011;32455;43.430;23.136;2023-07-09T11:49:25;3.00;;;2.20;;
46721;SDS011;32455;43.430;23.136;2023-07-09T11:52:39;4.55;;;2.42;;
46721;SDS011;32455;43.430;23.136;2023-07-09T11:55:41;3.45;;;2.20;;
46721;SDS011;32455;43.430;23.136;2023-07-09T11:58:28;5.15;;;2.35;;
46721;SDS011;32455;43.430;23.136;2023-07-09T12:01:14;4.07;;;2.20;;
46721;SDS011;32455;43.430;23.136;2023-07-09T12:04:02;2.33;;;2.03;;
46721;SDS011;32455;43.430;23.136;2023-07-09T12:06:48;4.55;;;1.90;;
46721;SDS011;32455;43.430;23.136;2023-07-09T12:09:39;2.90;;;2.00;;
46721;SDS011;32455;43.430;23.136;2023-07-09T12:12:27;3.97;;;2.10;;
46721;SDS011;32455;43.430;23.136;2023-07-09T12:15:17;2.15;;;1.98;;
46721;SDS011;32455;43.430;23.136;2023-07-09T12:18:14;3.47;;;2.25;;
46721;SDS011;32455;43.430;23.136;2023-07-09T12:21:00;4.47;;;2.40;;
46721;SDS011;32455;43.430;23.136;2023-07-09T12:23:46;5.35;;;1.90;;
46721;SDS011;32455;43.430;23.136;2023-07-09T12:26:32;3.58;;;2.10;;
46721;SDS011;32455;43.430;23.136;2023-07-09T12:29:18;2.00;;;1.77;;
46721;SDS011;32455;43.430;23.136;2023-07-09T12:32:14;3.10;;;1.90;;
46721;SDS011;32455;43.430;23.136;2023-07-09T12:35:01;2.58;;;2.00;;
46721;SDS011;32455;43.430;23.136;2023-07-09T12:37:48;2.22;;;1.90;;
46721;SDS011;32455;43.430;23.136;2023-07-09T12:40:35;3.67;;;2.65;;
46721;SDS011;32455;43.430;23.136;2023-07-09T12:43:26;2.28;;;1.92;;
46721;SDS011;32455;43.430;23.136;2023-07-09T12:46:15;3.05;;;2.00;;
46721;SDS011;32455;43.430;23.136;2023-07-09T12:49:04;3.47;;;2.03;;
46721;SDS011;32455;43.430;23.136;2023-07-09T12:51:50;5.82;;;2.25;;
46721;SDS011;32455;43.430;23.136;2023-07-09T12:54:37;4.70;;;2.28;;
46721;SDS011;32455;43.430;23.136;2023-07-09T12:57:22;4.30;;;2.20;;
46721;SDS011;32455;43.430;23.136;2023-07-09T13:00:12;2.30;;;2.05;;
46721;SDS011;32455;43.430;23.136;2023-07-09T13:03:00;2.25;;;2.05;;
46721;SDS011;32455;43.430;23.136;2023-07-09T13:05:59;2.67;;;1.85;;
46721;SDS011;32455;43.430;23.136;2023-07-09T13:08:46;2.97;;;2.13;;
46721;SDS011;32455;43.430;23.136;2023-07-09T13:11:37;4.70;;;1.90;;
46721;SDS011;32455;43.430;23.136;2023-07-09T13:14:25;3.13;;;2.00;;
46721;SDS011;32455;43.430;23.136;2023-07-09T13:17:12;6.53;;;2.38;;
46721;SDS011;32455;43.430;23.136;2023-07-09T13:20:01;3.88;;;2.03;;
46721;SDS011;32455;43.430;23.136;2023-07-09T13:22:47;2.63;;;2.03;;
46721;SDS011;32455;43.430;23.136;2023-07-09T13:25:33;2.17;;;1.98;;
46721;SDS011;32455;43.430;23.136;2023-07-09T13:28:19;3.00;;;2.17;;
46721;SDS011;32455;43.430;23.136;2023-07-09T13:31:17;5.40;;;1.92;;
46721;SDS011;32455;43.430;23.136;2023-07-09T13:34:07;3.80;;;2.10;;
46721;SDS011;32455;43.430;23.136;2023-07-09T13:37:03;2.25;;;2.05;;
46721;SDS011;32455;43.430;23.136;2023-07-09T13:39:48;2.97;;;2.15;;
46721;SDS011;32455;43.430;23.136;2023-07-09T13:42:33;5.72;;;2.15;;
46721;SDS011;32455;43.430;23.136;2023-07-09T13:45:24;3.15;;;1.85;;
46721;SDS011;32455;43.430;23.136;2023-07-09T13:51:01;3.90;;;1.73;;
46721;SDS011;32455;43.430;23.136;2023-07-09T13:53:52;4.05;;;2.17;;
46721;SDS011;32455;43.430;23.136;2023-07-09T13:56:39;3.05;;;1.98;;
46721;SDS011;32455;43.430;23.136;2023-07-09T13:59:25;4.05;;;2.00;;
46721;SDS011;32455;43.430;23.136;2023-07-09T14:02:21;3.45;;;1.83;;
46721;SDS011;32455;43.430;23.136;2023-07-09T14:05:11;3.40;;;1.92;;
46721;SDS011;32455;43.430;23.136;2023-07-09T14:07:58;4.10;;;2.15;;
46721;SDS011;32455;43.430;23.136;2023-07-09T14:10:43;3.83;;;2.15;;
46721;SDS011;32455;43.430;23.136;2023-07-09T14:13:29;4.13;;;2.35;;
46721;SDS011;32455;43.430;23.136;2023-07-09T14:16:16;3.95;;;2.30;;
46721;SDS011;32455;43.430;23.136;2023-07-09T14:19:02;4.82;;;2.30;;
46721;SDS011;32455;43.430;23.136;2023-07-09T14:21:47;2.70;;;2.00;;
46721;SDS011;32455;43.430;23.136;2023-07-09T14:24:33;2.67;;;1.90;;
46721;SDS011;32455;43.430;23.136;2023-07-09T14:27:19;2.30;;;1.80;;
46721;SDS011;32455;43.430;23.136;2023-07-09T14:30:04;2.00;;;1.90;;
46721;SDS011;32455;43.430;23.136;2023-07-09T14:32:50;6.07;;;2.28;;
46721;SDS011;32455;43.430;23.136;2023-07-09T14:35:37;2.90;;;2.00;;
46721;SDS011;32455;43.430;23.136;2023-07-09T14:38:24;3.35;;;2.15;;
46721;SDS011;32455;43.430;23.136;2023-07-09T14:41:20;3.92;;;2.30;;
46721;SDS011;32455;43.430;23.136;2023-07-09T14:47:17;6.07;;;2.45;;
46721;SDS011;32455;43.430;23.136;2023-07-09T14:50:05;3.70;;;2.45;;
46721;SDS011;32455;43.430;23.136;2023-07-09T14:52:51;3.05;;;1.85;;
46721;SDS011;32455;43.430;23.136;2023-07-09T14:55:37;2.78;;;2.35;;
46721;SDS011;32455;43.430;23.136;2023-07-09T14:58:23;4.00;;;2.08;;
46721;SDS011;32455;43.430;23.136;2023-07-09T15:01:14;2.60;;;2.13;;
46721;SDS011;32455;43.430;23.136;2023-07-09T15:04:01;3.73;;;2.13;;
46721;SDS011;32455;43.430;23.136;2023-07-09T15:06:58;3.67;;;2.03;;
46721;SDS011;32455;43.430;23.136;2023-07-09T15:09:44;2.75;;;2.13;;
46721;SDS011;32455;43.430;23.136;2023-07-09T15:12:31;2.55;;;2.03;;
46721;SDS011;32455;43.430;23.136;2023-07-09T15:15:35;4.05;;;2.30;;
46721;SDS011;32455;43.430;23.136;2023-07-09T15:18:21;3.78;;;2.30;;
46721;SDS011;32455;43.430;23.136;2023-07-09T15:21:08;4.55;;;2.30;;
46721;SDS011;32455;43.430;23.136;2023-07-09T15:23:54;2.38;;;2.17;;
46721;SDS011;32455;43.430;23.136;2023-07-09T15:26:40;3.67;;;2.45;;
46721;SDS011;32455;43.430;23.136;2023-07-09T15:29:26;3.38;;;1.90;;
46721;SDS011;32455;43.430;23.136;2023-07-09T15:32:14;4.82;;;2.13;;
46721;SDS011;32455;43.430;23.136;2023-07-09T15:35:00;2.85;;;1.90;;
46721;SDS011;32455;43.430;23.136;2023-07-09T15:37:45;5.55;;;2.25;;
46721;SDS011;32455;43.430;23.136;2023-07-09T15:40:34;2.55;;;1.88;;
46721;SDS011;32455;43.430;23.136;2023-07-09T15:43:19;3.55;;;1.80;;
46721;SDS011;32455;43.430;23.136;2023-07-09T15:46:05;5.25;;;1.98;;
46721;SDS011;32455;43.430;23.136;2023-07-09T15:48:50;1.67;;;1.42;;
46721;SDS011;32455;43.430;23.136;2023-07-09T15:51:37;3.30;;;1.92;;
46721;SDS011;32455;43.430;23.136;2023-07-09T15:54:23;2.80;;;2.25;;
46721;SDS011;32455;43.430;23.136;2023-07-09T15:57:11;3.75;;;2.00;;
46721;SDS011;32455;43.430;23.136;2023-07-09T16:00:00;2.22;;;2.13;;
46721;SDS011;32455;43.430;23.136;2023-07-09T16:02:46;2.95;;;1.80;;
46721;SDS011;32455;43.430;23.136;2023-07-09T16:05:33;3.55;;;1.70;;
46721;SDS011;32455;43.430;23.136;2023-07-09T16:08:20;3.05;;;1.60;;
46721;SDS011;32455;43.430;23.136;2023-07-09T16:11:14;3.92;;;1.80;;
46721;SDS011;32455;43.430;23.136;2023-07-09T16:14:04;2.60;;;1.80;;
46721;SDS011;32455;43.430;23.136;2023-07-09T16:17:12;4.80;;;1.88;;
46721;SDS011;32455;43.430;23.136;2023-07-09T16:19:58;2.97;;;1.55;;
46721;SDS011;32455;43.430;23.136;2023-07-09T16:22:43;7.53;;;2.00;;
46721;SDS011;32455;43.430;23.136;2023-07-09T16:25:33;2.95;;;1.92;;
46721;SDS011;32455;43.430;23.136;2023-07-09T16:28:20;2.58;;;1.77;;
46721;SDS011;32455;43.430;23.136;2023-07-09T16:31:05;3.60;;;1.73;;
46721;SDS011;32455;43.430;23.136;2023-07-09T16:33:51;2.72;;;1.80;;
46721;SDS011;32455;43.430;23.136;2023-07-09T16:36:36;2.78;;;1.85;;
46721;SDS011;32455;43.430;23.136;2023-07-09T16:39:25;3.15;;;2.00;;
46721;SDS011;32455;43.430;23.136;2023-07-09T16:42:23;3.58;;;2.13;;
46721;SDS011;32455;43.430;23.136;2023-07-09T16:45:07;2.25;;;1.85;;
46721;SDS011;32455;43.430;23.136;2023-07-09T16:47:53;3.20;;;1.67;;
46721;SDS011;32455;43.430;23.136;2023-07-09T16:50:39;3.85;;;2.00;;
46721;SDS011;32455;43.430;23.136;2023-07-09T16:53:25;3.28;;;2.10;;
46721;SDS011;32455;43.430;23.136;2023-07-09T16:56:14;4.22;;;2.30;;
46721;SDS011;32455;43.430;23.136;2023-07-09T16:59:00;4.57;;;2.40;;
46721;SDS011;32455;43.430;23.136;2023-07-09T17:01:45;3.78;;;2.28;;
46721;SDS011;32455;43.430;23.136;2023-07-09T17:04:33;4.20;;;2.47;;
46721;SDS011;32455;43.430;23.136;2023-07-09T17:07:19;5.45;;;1.92;;
46721;SDS011;32455;43.430;23.136;2023-07-09T17:10:05;3.92;;;2.15;;
46721;SDS011;32455;43.430;23.136;2023-07-09T17:12:54;4.43;;;2.40;;
46721;SDS011;32455;43.430;23.136;2023-07-09T17:18:31;44.88;;;18.98;;
46721;SDS011;32455;43.430;23.136;2023-07-09T17:21:16;36.75;;;16.70;;
46721;SDS011;32455;43.430;23.136;2023-07-09T17:24:02;21.77;;;10.95;;
46721;SDS011;32455;43.430;23.136;2023-07-09T17:26:53;7.18;;;3.72;;
46721;SDS011;32455;43.430;23.136;2023-07-09T17:29:40;8.65;;;4.13;;
46721;SDS011;32455;43.430;23.136;2023-07-09T17:32:26;20.98;;;9.75;;
46721;SDS011;32455;43.430;23.136;2023-07-09T17:35:12;5.40;;;3.75;;